createdAt,value
2019-02-24T00:00:10.641Z,35.13
2019-02-24T00:02:39.582Z,35.57
2019-02-24T00:05:08.363Z,36.77
2019-02-24T00:07:37.235Z,38.20
2019-02-24T00:10:06.790Z,32.67
2019-02-24T00:12:35.532Z,34.60
2019-02-24T00:15:07.202Z,35.90
2019-02-24T00:17:36.021Z,33.67
2019-02-24T00:20:06.448Z,36.15
2019-02-24T00:22:35.229Z,35.40
2019-02-24T00:25:05.326Z,39.63
2019-02-24T00:27:34.013Z,40.40
2019-02-24T00:30:02.871Z,38.33
2019-02-24T00:32:31.644Z,34.63
2019-02-24T00:35:00.327Z,39.60
2019-02-24T00:37:29.324Z,32.63
2019-02-24T00:39:58.254Z,34.17
2019-02-24T00:42:27.113Z,33.67
2019-02-24T00:44:55.856Z,40.27
2019-02-24T00:47:24.585Z,40.10
2019-02-24T00:49:53.282Z,39.07
2019-02-24T00:52:22.240Z,34.97
2019-02-24T00:54:50.899Z,39.90
2019-02-24T00:57:19.917Z,36.05
2019-02-24T00:59:48.749Z,36.30
2019-02-24T01:02:17.458Z,37.20
2019-02-24T01:05:04.349Z,31.23
2019-02-24T01:07:49.952Z,37.93
2019-02-24T01:10:19.760Z,35.03
2019-02-24T01:12:48.553Z,30.87
2019-02-24T01:15:17.429Z,28.40
2019-02-24T01:17:46.044Z,31.30
2019-02-24T01:20:15.261Z,40.48
2019-02-24T01:22:43.995Z,37.57
2019-02-24T01:25:12.694Z,39.43
2019-02-24T01:27:41.372Z,39.80
2019-02-24T01:30:11.852Z,37.70
2019-02-24T01:32:40.935Z,48.70
2019-02-24T01:35:10.184Z,30.50
2019-02-24T01:37:38.927Z,26.97
2019-02-24T01:40:08.803Z,34.57
2019-02-24T01:42:37.708Z,35.60
2019-02-24T01:45:09.191Z,25.80
2019-02-24T01:47:38.175Z,37.90
2019-02-24T01:50:08.924Z,34.23
2019-02-24T01:52:37.581Z,27.27
2019-02-24T01:55:06.424Z,30.23
2019-02-24T01:57:35.063Z,36.10
2019-02-24T02:00:04.265Z,32.53
2019-02-24T02:02:33.062Z,37.90
2019-02-24T02:05:01.712Z,32.42
2019-02-24T02:07:30.422Z,54.30
2019-02-24T02:09:59.277Z,34.33
2019-02-24T02:12:28.201Z,32.50
2019-02-24T02:14:56.830Z,34.07
2019-02-24T02:17:25.473Z,46.40
2019-02-24T02:19:54.171Z,35.30
2019-02-24T02:22:22.882Z,41.87
2019-02-24T02:24:51.591Z,38.20
2019-02-24T02:27:20.535Z,36.15
2019-02-24T02:29:49.308Z,27.83
2019-02-24T02:32:18.074Z,42.93
2019-02-24T02:34:46.786Z,32.27
2019-02-24T02:37:15.551Z,31.47
2019-02-24T02:39:47.194Z,42.20
2019-02-24T02:42:15.918Z,35.20
2019-02-24T02:44:44.592Z,38.10
2019-02-24T02:47:13.309Z,29.32
2019-02-24T02:49:41.919Z,28.20
2019-02-24T02:52:10.551Z,30.05
2019-02-24T02:54:39.227Z,33.30
2019-02-24T02:57:08.022Z,33.53
2019-02-24T02:59:36.800Z,33.53
2019-02-24T03:02:05.429Z,26.37
2019-02-24T03:04:34.126Z,25.57
2019-02-24T03:07:07.042Z,34.43
2019-02-24T03:09:35.724Z,34.63
2019-02-24T03:12:05.719Z,31.55
2019-02-24T03:14:34.483Z,28.43
2019-02-24T03:17:03.390Z,29.63
2019-02-24T03:19:32.087Z,29.30
2019-02-24T03:22:00.758Z,27.63
2019-02-24T03:24:29.479Z,38.47
2019-02-24T03:26:58.112Z,21.63
2019-02-24T03:29:27.135Z,32.20
2019-02-24T03:31:55.942Z,33.20
2019-02-24T03:34:25.057Z,35.67
2019-02-24T03:36:53.728Z,25.07
2019-02-24T03:39:22.472Z,27.00
2019-02-24T03:41:51.409Z,25.77
2019-02-24T03:44:20.564Z,31.47
2019-02-24T03:46:49.650Z,30.70
2019-02-24T03:49:18.787Z,27.57
2019-02-24T03:51:47.495Z,30.80
2019-02-24T03:54:16.144Z,32.87
2019-02-24T03:56:45.073Z,27.63
2019-02-24T03:59:15.329Z,28.13
2019-02-24T04:01:44.534Z,27.35
2019-02-24T04:04:13.090Z,33.33
2019-02-24T04:06:42.097Z,28.07
2019-02-24T04:09:11.348Z,27.20
2019-02-24T04:11:40.015Z,28.50
2019-02-24T04:14:08.980Z,32.23
2019-02-24T04:16:37.782Z,38.90
2019-02-24T04:19:06.611Z,34.80
2019-02-24T04:21:35.245Z,35.80
2019-02-24T04:24:04.121Z,35.67
2019-02-24T04:26:32.875Z,28.43
2019-02-24T04:29:01.625Z,29.63
2019-02-24T04:31:30.585Z,32.60
2019-02-24T04:33:59.141Z,48.70
2019-02-24T04:36:27.893Z,38.88
2019-02-24T04:38:57.001Z,33.80
2019-02-24T04:41:26.087Z,28.13
2019-02-24T04:43:54.671Z,31.70
2019-02-24T04:46:23.403Z,32.57
2019-02-24T04:48:52.195Z,28.05
2019-02-24T04:51:21.166Z,33.50
2019-02-24T04:53:49.881Z,29.80
2019-02-24T04:56:19.007Z,26.87
2019-02-24T04:58:47.675Z,36.93
2019-02-24T05:01:16.633Z,30.52
2019-02-24T05:03:45.773Z,33.77
2019-02-24T05:06:14.379Z,34.27
2019-02-24T05:08:43.208Z,29.18
2019-02-24T05:11:11.819Z,34.43
2019-02-24T05:13:40.700Z,36.07
2019-02-24T05:16:09.496Z,36.67
2019-02-24T05:18:38.570Z,36.87
2019-02-24T05:21:07.288Z,30.37
2019-02-24T05:23:36.201Z,36.45
2019-02-24T05:26:05.743Z,34.08
2019-02-24T05:28:34.458Z,35.70
2019-02-24T05:31:03.414Z,39.38
2019-02-24T05:33:32.085Z,36.28
2019-02-24T05:36:00.929Z,33.33
2019-02-24T05:38:29.558Z,36.30
2019-02-24T05:40:58.282Z,40.67
2019-02-24T05:43:26.824Z,33.20
2019-02-24T05:45:55.305Z,31.07
2019-02-24T05:48:24.610Z,33.30
2019-02-24T05:50:53.625Z,24.60
2019-02-24T05:53:22.308Z,35.23
2019-02-24T05:55:50.983Z,32.73
2019-02-24T05:58:19.730Z,31.33
2019-02-24T06:00:48.432Z,23.30
2019-02-24T06:03:17.502Z,31.30
2019-02-24T06:05:46.217Z,30.03
2019-02-24T06:08:15.291Z,30.90
2019-02-24T06:10:44.008Z,26.97
2019-02-24T06:13:12.787Z,23.40
2019-02-24T06:15:41.394Z,34.27
2019-02-24T06:18:10.063Z,31.00
2019-02-24T06:20:39.146Z,81.53
2019-02-24T06:23:07.919Z,30.57
2019-02-24T06:25:36.515Z,32.70
2019-02-24T06:28:05.314Z,32.63
2019-02-24T06:30:33.961Z,40.70
2019-02-24T06:33:02.582Z,41.83
2019-02-24T06:35:31.337Z,29.13
2019-02-24T06:37:59.897Z,30.70
2019-02-24T06:40:28.749Z,30.23
2019-02-24T06:42:57.336Z,34.13
2019-02-24T06:45:26.147Z,32.47
2019-02-24T06:47:54.852Z,36.90
2019-02-24T06:50:23.554Z,28.53
2019-02-24T06:52:52.116Z,35.67
2019-02-24T06:55:20.841Z,33.63
2019-02-24T06:57:49.470Z,31.30
2019-02-24T07:00:18.056Z,34.00
2019-02-24T07:02:46.788Z,39.90
2019-02-24T07:05:15.597Z,44.93
2019-02-24T07:07:44.387Z,36.07
2019-02-24T07:10:13.006Z,40.23
2019-02-24T07:12:41.701Z,35.53
2019-02-24T07:15:10.258Z,32.00
2019-02-24T07:17:38.838Z,28.13
2019-02-24T07:20:08.703Z,40.93
2019-02-24T07:22:37.498Z,30.23
2019-02-24T07:25:07.511Z,20.27
2019-02-24T07:27:36.133Z,31.67
2019-02-24T07:30:07.700Z,26.60
2019-02-24T07:32:36.733Z,21.87
2019-02-24T07:35:06.928Z,20.37
2019-02-24T07:37:35.696Z,22.90
2019-02-24T07:40:06.412Z,25.40
2019-02-24T07:42:35.061Z,22.90
2019-02-24T07:45:05.873Z,24.63
2019-02-24T07:47:42.242Z,17.80
2019-02-24T07:50:11.281Z,18.07
2019-02-24T07:52:40.413Z,18.53
2019-02-24T07:55:09.165Z,22.27
2019-02-24T07:57:38.218Z,23.03
2019-02-24T08:00:10.467Z,23.37
2019-02-24T08:02:38.268Z,21.10
2019-02-24T08:05:09.266Z,24.50
2019-02-24T08:07:38.120Z,22.10
2019-02-24T08:10:08.336Z,21.40
2019-02-24T08:12:37.227Z,22.33
2019-02-24T08:15:10.112Z,20.43
2019-02-24T08:17:40.733Z,20.68
2019-02-24T08:20:10.797Z,23.75
2019-02-24T08:22:40.710Z,21.97
2019-02-24T08:25:23.452Z,25.37
2019-02-24T08:27:55.505Z,20.43
2019-02-24T08:30:23.847Z,25.20
2019-02-24T08:32:52.593Z,24.57
2019-02-24T08:35:21.221Z,25.27
2019-02-24T08:37:50.301Z,23.37
2019-02-24T08:40:18.972Z,22.48
2019-02-24T08:42:48.273Z,23.67
2019-02-24T08:45:17.026Z,25.43
2019-02-24T08:47:45.741Z,21.67
2019-02-24T08:50:14.743Z,26.00
2019-02-24T08:52:43.566Z,27.87
2019-02-24T08:55:12.903Z,27.10
2019-02-24T08:57:41.690Z,29.20
2019-02-24T09:00:13.824Z,31.60
2019-02-24T09:02:43.514Z,30.20
2019-02-24T09:05:12.604Z,29.57
2019-02-24T09:07:41.835Z,30.87
2019-02-24T09:10:10.779Z,25.73
2019-02-24T09:12:40.265Z,26.87
2019-02-24T09:15:12.001Z,22.02
2019-02-24T09:17:42.411Z,18.80
2019-02-24T09:20:14.827Z,24.80
2019-02-24T09:22:45.055Z,22.27
2019-02-24T09:25:13.923Z,22.13
2019-02-24T09:27:42.757Z,20.90
2019-02-24T09:30:14.761Z,27.42
2019-02-24T09:32:44.348Z,22.47
2019-02-24T09:35:13.190Z,24.10
2019-02-24T09:37:41.989Z,21.83
2019-02-24T09:40:14.882Z,22.30
2019-02-24T09:42:43.534Z,18.70
2019-02-24T09:45:13.445Z,24.60
2019-02-24T09:47:47.390Z,19.67
2019-02-24T09:50:16.696Z,29.63
2019-02-24T09:52:45.488Z,20.00
2019-02-24T09:55:14.234Z,19.10
2019-02-24T09:57:45.104Z,18.70
2019-02-24T10:00:17.788Z,17.13
2019-02-24T10:02:47.572Z,15.10
2019-02-24T10:05:16.483Z,17.50
2019-02-24T10:07:45.517Z,23.93
2019-02-24T10:10:17.739Z,19.97
2019-02-24T10:12:46.689Z,17.33
2019-02-24T10:15:25.569Z,15.63
2019-02-24T10:17:54.409Z,20.53
2019-02-24T10:20:23.088Z,15.53
2019-02-24T10:23:00.873Z,17.40
2019-02-24T10:25:31.478Z,13.80
2019-02-24T10:28:00.688Z,14.70
2019-02-24T10:30:29.876Z,13.70
2019-02-24T10:32:58.586Z,9.83
2019-02-24T10:35:28.007Z,13.40
2019-02-24T10:37:57.204Z,14.97
2019-02-24T10:40:27.010Z,12.40
2019-02-24T10:42:56.595Z,16.10
2019-02-24T10:45:25.429Z,13.23
2019-02-24T10:47:55.899Z,12.50
2019-02-24T10:50:25.087Z,15.13
2019-02-24T10:52:54.183Z,12.97
2019-02-24T10:55:23.200Z,13.70
2019-02-24T10:57:52.074Z,12.23
2019-02-24T11:00:22.847Z,11.90
2019-02-24T11:02:52.180Z,11.43
2019-02-24T11:05:21.412Z,12.60
2019-02-24T11:07:51.668Z,9.57
2019-02-24T11:10:21.496Z,12.20
2019-02-24T11:12:51.169Z,13.87
2019-02-24T11:15:19.943Z,12.45
2019-02-24T11:17:48.568Z,12.57
2019-02-24T11:20:19.743Z,12.40
2019-02-24T11:22:49.041Z,12.78
2019-02-24T11:25:17.992Z,10.70
2019-02-24T11:27:46.828Z,10.67
2019-02-24T11:30:16.666Z,10.50
2019-02-24T11:32:45.287Z,12.93
2019-02-24T11:35:14.265Z,12.97
2019-02-24T11:37:42.972Z,10.70
2019-02-24T11:40:17.770Z,10.85
2019-02-24T11:42:46.658Z,10.90
2019-02-24T11:45:16.563Z,11.30
2019-02-24T11:47:46.198Z,11.70
2019-02-24T11:50:15.776Z,11.00
2019-02-24T11:52:45.479Z,11.60
2019-02-24T11:55:15.167Z,12.00
2019-02-24T11:57:44.156Z,11.43
2019-02-24T12:00:19.239Z,11.73
2019-02-24T12:02:48.329Z,9.53
2019-02-24T12:05:17.393Z,11.18
2019-02-24T12:07:46.496Z,19.10
2019-02-24T12:10:15.918Z,7.73
2019-02-24T12:12:48.433Z,11.17
2019-02-24T12:15:21.390Z,11.13
2019-02-24T12:17:52.055Z,9.87
2019-02-24T12:20:21.505Z,12.30
2019-02-24T12:22:52.231Z,9.47
2019-02-24T12:25:21.384Z,9.23
2019-02-24T12:27:50.032Z,9.63
2019-02-24T12:30:18.763Z,10.70
2019-02-24T12:32:47.403Z,10.20
2019-02-24T12:35:16.109Z,11.43
2019-02-24T12:37:44.741Z,9.83
2019-02-24T12:40:15.658Z,11.33
2019-02-24T12:42:47.878Z,7.60
2019-02-24T12:45:18.800Z,7.83
2019-02-24T12:47:47.929Z,8.37
2019-02-24T12:50:17.836Z,8.23
2019-02-24T12:52:46.588Z,10.80
2019-02-24T12:55:22.392Z,6.85
2019-02-24T12:57:51.498Z,11.13
2019-02-24T13:00:29.235Z,8.77
2019-02-24T13:02:58.224Z,8.10
2019-02-24T13:05:26.954Z,8.87
2019-02-24T13:07:56.462Z,6.67
2019-02-24T13:10:25.148Z,9.00
2019-02-24T13:12:54.078Z,12.13
2019-02-24T13:15:22.883Z,10.40
2019-02-24T13:17:51.520Z,9.80
2019-02-24T13:20:20.317Z,20.30
2019-02-24T13:22:49.048Z,8.33
2019-02-24T13:25:17.747Z,7.60
2019-02-24T13:27:46.626Z,9.23
2019-02-24T13:30:18.157Z,8.40
2019-02-24T13:32:46.910Z,8.50
2019-02-24T13:35:15.760Z,7.40
2019-02-24T13:37:44.588Z,6.87
2019-02-24T13:40:15.897Z,7.45
2019-02-24T13:42:44.569Z,6.33
2019-02-24T13:45:19.303Z,9.13
2019-02-24T13:47:48.004Z,8.23
2019-02-24T13:50:16.686Z,8.83
2019-02-24T13:52:45.394Z,7.60
2019-02-24T13:55:15.360Z,10.23
2019-02-24T13:57:44.154Z,7.93
2019-02-24T14:00:18.291Z,7.23
2019-02-24T14:02:47.027Z,9.10
2019-02-24T14:05:15.760Z,8.45
2019-02-24T14:07:44.680Z,8.03
2019-02-24T14:10:15.301Z,9.80
2019-02-24T14:12:43.918Z,7.40
2019-02-24T14:15:16.449Z,7.33
2019-02-24T14:17:45.069Z,8.93
2019-02-24T14:20:15.747Z,8.43
2019-02-24T14:22:44.376Z,7.93
2019-02-24T14:25:17.545Z,8.63
2019-02-24T14:27:46.328Z,8.53
2019-02-24T14:30:17.470Z,10.10
2019-02-24T14:32:46.228Z,9.00
2019-02-24T14:35:17.496Z,9.80
2019-02-24T14:37:46.208Z,6.90
2019-02-24T14:40:14.868Z,6.28
2019-02-24T14:42:43.613Z,6.20
2019-02-24T14:45:14.799Z,7.30
2019-02-24T14:47:43.546Z,5.50
2019-02-24T14:50:12.348Z,6.65
2019-02-24T14:52:40.973Z,8.27
2019-02-24T14:55:30.448Z,7.20
2019-02-24T14:57:59.060Z,7.13
2019-02-24T15:00:27.715Z,6.93
2019-02-24T15:02:56.345Z,6.57
2019-02-24T15:05:25.120Z,7.00
2019-02-24T15:07:53.825Z,6.37
2019-02-24T15:10:24.997Z,5.53
2019-02-24T15:12:53.683Z,5.57
2019-02-24T15:15:32.854Z,6.00
2019-02-24T15:17:57.550Z,6.70
2019-02-24T15:20:26.295Z,9.20
2019-02-24T15:22:55.149Z,8.07
2019-02-24T15:25:23.881Z,6.73
2019-02-24T15:27:52.625Z,7.17
2019-02-24T15:30:35.539Z,6.37
2019-02-24T15:33:05.101Z,8.40
2019-02-24T15:35:33.804Z,5.90
2019-02-24T15:38:02.596Z,8.00
2019-02-24T15:40:31.225Z,6.83
2019-02-24T15:42:59.926Z,7.10
2019-02-24T15:45:28.638Z,7.50
2019-02-24T15:48:00.934Z,5.93
2019-02-24T15:50:29.699Z,5.43
2019-02-24T15:52:58.358Z,8.30
2019-02-24T15:55:27.165Z,7.25
2019-02-24T15:57:56.123Z,5.53
2019-02-24T16:00:27.863Z,7.20
2019-02-24T16:03:01.600Z,7.17
2019-02-24T16:05:27.064Z,6.23
2019-02-24T16:07:55.903Z,7.93
2019-02-24T16:10:24.602Z,7.80
2019-02-24T16:12:53.292Z,7.00
2019-02-24T16:15:26.905Z,6.78
2019-02-24T16:17:55.680Z,7.07
2019-02-24T16:20:29.904Z,6.50
2019-02-24T16:22:58.688Z,7.07
2019-02-24T16:25:27.431Z,6.80
2019-02-24T16:27:56.237Z,5.73
2019-02-24T16:30:24.956Z,5.43
2019-02-24T16:32:53.772Z,6.10
2019-02-24T16:35:22.538Z,6.77
2019-02-24T16:37:51.277Z,6.90
2019-02-24T16:40:25.542Z,5.60
2019-02-24T16:42:54.223Z,5.40
2019-02-24T16:45:22.979Z,8.40
2019-02-24T16:47:51.710Z,7.60
2019-02-24T16:50:23.172Z,7.22
2019-02-24T16:52:51.903Z,5.60
2019-02-24T16:55:20.593Z,8.10
2019-02-24T16:57:49.220Z,7.00
2019-02-24T17:00:25.248Z,6.87
2019-02-24T17:02:53.964Z,7.20
2019-02-24T17:05:22.719Z,6.40
2019-02-24T17:07:51.354Z,6.07
2019-02-24T17:10:22.239Z,6.30
2019-02-24T17:12:50.859Z,8.65
2019-02-24T17:15:19.730Z,8.15
2019-02-24T17:17:48.371Z,7.77
2019-02-24T17:20:22.266Z,8.58
2019-02-24T17:22:50.918Z,7.37
2019-02-24T17:25:19.610Z,9.53
2019-02-24T17:27:48.812Z,8.70
2019-02-24T17:30:18.337Z,10.73
2019-02-24T17:32:47.032Z,8.27
2019-02-24T17:35:15.978Z,6.80
2019-02-24T17:37:44.592Z,7.37
2019-02-24T17:40:19.556Z,9.13
2019-02-24T17:42:51.622Z,8.50
2019-02-24T17:45:20.447Z,8.43
2019-02-24T17:47:49.178Z,6.63
2019-02-24T17:50:18.279Z,8.65
2019-02-24T17:52:47.106Z,7.53
2019-02-24T17:55:17.261Z,6.40
2019-02-24T17:57:46.046Z,7.83
2019-02-24T18:00:30.987Z,10.00
2019-02-24T18:02:59.793Z,6.85
2019-02-24T18:05:28.417Z,7.20
2019-02-24T18:07:57.860Z,8.33
2019-02-24T18:10:26.705Z,6.80
2019-02-24T18:12:55.392Z,8.93
2019-02-24T18:15:24.169Z,9.70
2019-02-24T18:17:52.856Z,8.73
2019-02-24T18:20:24.561Z,9.40
2019-02-24T18:22:53.369Z,7.30
2019-02-24T18:25:22.274Z,7.77
2019-02-24T18:27:50.928Z,7.60
2019-02-24T18:30:25.754Z,7.70
2019-02-24T18:32:54.506Z,9.07
2019-02-24T18:35:23.798Z,9.10
2019-02-24T18:37:52.455Z,9.93
2019-02-24T18:40:21.134Z,6.92
2019-02-24T18:42:59.418Z,9.80
2019-02-24T18:45:20.157Z,17.77
2019-02-24T18:47:49.867Z,21.37
2019-02-24T18:50:19.727Z,10.73
2019-02-24T18:52:49.524Z,8.10
2019-02-24T18:55:18.254Z,12.07
2019-02-24T18:57:47.050Z,10.13
2019-02-24T19:00:19.409Z,14.15
2019-02-24T19:02:48.778Z,7.97
2019-02-24T19:05:18.091Z,8.80
2019-02-24T19:07:47.595Z,8.78
2019-02-24T19:10:21.400Z,9.23
2019-02-24T19:12:51.550Z,8.17
2019-02-24T19:15:23.361Z,7.78
2019-02-24T19:17:52.798Z,8.03
2019-02-24T19:20:24.043Z,8.30
2019-02-24T19:22:53.326Z,14.80
2019-02-24T19:25:23.317Z,6.63
2019-02-24T19:27:52.707Z,9.78
2019-02-24T19:30:23.106Z,7.22
2019-02-24T19:32:51.905Z,12.93
2019-02-24T19:35:20.667Z,12.63
2019-02-24T19:37:49.512Z,7.20
2019-02-24T19:40:20.660Z,10.37
2019-02-24T19:43:00.223Z,10.00
2019-02-24T19:45:31.770Z,11.40
2019-02-24T19:48:00.803Z,8.07
2019-02-24T19:50:30.030Z,7.70
2019-02-24T19:52:58.574Z,7.90
2019-02-24T19:55:27.495Z,8.43
2019-02-24T19:57:56.419Z,13.67
2019-02-24T20:00:27.056Z,7.93
2019-02-24T20:02:56.089Z,11.00
2019-02-24T20:05:25.805Z,8.47
2019-02-24T20:07:55.254Z,9.73
2019-02-24T20:10:31.067Z,6.90
2019-02-24T20:12:59.787Z,9.87
2019-02-24T20:15:28.409Z,7.27
2019-02-24T20:17:57.054Z,8.50
2019-02-24T20:20:25.738Z,14.07
2019-02-24T20:22:54.515Z,7.37
2019-02-24T20:25:23.978Z,10.15
2019-02-24T20:27:52.690Z,8.23
2019-02-24T20:30:27.087Z,9.30
2019-02-24T20:32:55.711Z,9.60
2019-02-24T20:35:25.378Z,8.77
2019-02-24T20:37:54.339Z,8.27
2019-02-24T20:40:23.063Z,11.70
2019-02-24T20:42:53.843Z,11.53
2019-02-24T20:45:25.591Z,12.87
2019-02-24T20:47:55.678Z,10.90
2019-02-24T20:50:30.339Z,12.07
2019-02-24T20:52:59.035Z,12.80
2019-02-24T20:55:28.171Z,9.63
2019-02-24T20:57:57.013Z,16.02
2019-02-24T21:00:28.546Z,12.93
2019-02-24T21:03:06.512Z,10.80
2019-02-24T21:05:35.677Z,13.90
2019-02-24T21:08:05.258Z,15.53
2019-02-24T21:10:35.379Z,12.87
2019-02-24T21:13:06.916Z,12.18
2019-02-24T21:15:36.648Z,13.57
2019-02-24T21:18:07.212Z,11.53
2019-02-24T21:20:36.074Z,9.80
2019-02-24T21:23:06.351Z,14.85
2019-02-24T21:25:37.293Z,12.57
2019-02-24T21:28:06.236Z,15.27
2019-02-24T21:30:36.269Z,11.47
2019-02-24T21:33:16.800Z,16.25
2019-02-24T21:35:47.761Z,20.90
2019-02-24T21:38:18.314Z,16.47
2019-02-24T21:40:50.033Z,18.47
2019-02-24T21:43:21.381Z,13.10
2019-02-24T21:45:52.085Z,14.87
2019-02-24T21:48:23.070Z,17.27
2019-02-24T21:50:51.960Z,16.10
2019-02-24T21:53:42.365Z,13.67
2019-02-24T21:56:14.038Z,13.38
2019-02-24T21:58:42.850Z,14.97
2019-02-24T22:01:12.619Z,9.57
2019-02-24T22:03:41.308Z,10.50
2019-02-24T22:06:09.845Z,9.10
2019-02-24T22:08:38.536Z,11.03
2019-02-24T22:11:07.144Z,14.13
2019-02-24T22:13:35.888Z,18.93
2019-02-24T22:16:04.767Z,11.90
2019-02-24T22:18:33.490Z,12.80
2019-02-24T22:21:02.163Z,12.68
2019-02-24T22:23:32.115Z,14.47
2019-02-24T22:26:00.879Z,12.93
2019-02-24T22:28:29.515Z,12.90
2019-02-24T22:30:58.134Z,12.88
2019-02-24T22:33:26.792Z,9.10
2019-02-24T22:35:55.519Z,12.60
2019-02-24T22:38:24.382Z,12.03
2019-02-24T22:40:54.599Z,10.53
2019-02-24T22:43:23.337Z,12.73
2019-02-24T22:45:52.049Z,13.80
2019-02-24T22:48:20.672Z,13.90
2019-02-24T22:50:49.319Z,13.70
2019-02-24T22:53:17.968Z,13.93
2019-02-24T22:55:46.611Z,13.07
2019-02-24T22:58:15.364Z,12.18
2019-02-24T23:00:54.032Z,12.55
2019-02-24T23:03:28.337Z,11.67
2019-02-24T23:05:58.978Z,13.80
2019-02-24T23:08:28.649Z,14.23
2019-02-24T23:10:58.130Z,13.27
2019-02-24T23:13:27.693Z,11.70
2019-02-24T23:15:57.179Z,10.00
2019-02-24T23:18:26.983Z,11.80
2019-02-24T23:20:55.614Z,10.77
2019-02-24T23:23:25.073Z,12.87
2019-02-24T23:25:54.771Z,12.82
2019-02-24T23:28:23.450Z,15.83
2019-02-24T23:30:52.140Z,16.47
2019-02-24T23:33:20.849Z,15.90
2019-02-24T23:35:49.540Z,16.20
2019-02-24T23:38:18.338Z,16.17
2019-02-24T23:40:46.996Z,15.03
2019-02-24T23:43:15.766Z,14.63
2019-02-24T23:45:44.467Z,11.67
2019-02-24T23:48:13.178Z,13.40
2019-02-24T23:50:41.757Z,14.80
2019-02-24T23:53:10.479Z,13.63
2019-02-24T23:55:39.196Z,16.23
2019-02-24T23:58:07.828Z,14.63
